Deer Park, AL (36529)

5:37 PM CST on December 27, 2014 (GMT -0600)
York Hill Gulfcrest, Alabama | Change Station
CLOSE
Current Station
Personal Weather Station
Location: Chunchula, AL
Elevation: 190 ft
Nearby Weather Stations
Active Advisory: Flood Warning, Flash Flood Watch

Elev 190 ft 30.99 °N, 88.24 °W | Updated 1 minute ago

Rain
Rain
58.5 °F
Feels Like 58.5 °F
N
0.0
Wind Variable Wind from SSW

Today
High -- | Low -- °F
--% Chance of Precip.
Yesterday
High -- | Low -- °F
Precip. -- in
6:50 AM 4:58 PM
Waxing Crescent, 41% visible
Pressure 30.12 in
Visibility 2.5 miles
Clouds Overcast 500 ft
Dew Point 58 °F
Humidity 99%
Rainfall 0.33 in
Snow Depth Not available.
UV 0 out of 12
Pollen .50 out of 12
Air Quality Not available.
Flu Activity Not available.
SPECI KMOB 272332Z 11012KT 2 1/2SM +RA BR OVC005 16/16 A3012 RMK AO2 VIS 1 3/4V4 LTG DSNT E AND SE TSE03 P0030 T01560156

More Conditions Fewer Conditions

Pressure 30.12 in
Visibility 2.5 miles
Clouds Overcast 500 ft
Dew Point 58 °F
Humidity 99%
Rainfall 0.33 in
Snow Depth Not available.
UV 0 out of 12
Pollen .50 out of 12
Air Quality Not available.
Flu Activity Not available.
SPECI KMOB 272332Z 11012KT 2 1/2SM +RA BR OVC005 16/16 A3012 RMK AO2 VIS 1 3/4V4 LTG DSNT E AND SE TSE03 P0030 T01560156

More Conditions Fewer Conditions

10-Day Weather Forecast

Almanac

Astronomy

Dec. 27, 2014 Rise Set
Actual Time
Civil Twilight
Nautical Twilight
Astronomical Twilight
Moon
Length of Visible Light
Length of Day
Tomorrow will be .
, % of the Moon is Illuminated

Today's Extremes

State Highs State Lows

Community

WunderPhotos

Upload Photos

1,781,109 photos uploaded!

WunderBlogs® & News

Nearby

Air Quality

  Air Quality AQ Index Pollutant
Not available.

Snow Depth

Station Depth Elevation

Earthquake Activity

City Distance Mag. Time & Date
Minimum magnitude displayed is 2.5.

Coastal Water Temperatures

Place Temperature

Nearby Weather Stations